createdAt,value
2019-03-23T00:00:22.940Z,66.10
2019-03-23T00:02:51.563Z,66.70
2019-03-23T00:05:20.219Z,66.60
2019-03-23T00:07:48.778Z,67.00
2019-03-23T00:10:17.364Z,65.90
2019-03-23T00:12:46.112Z,66.20
2019-03-23T00:15:15.010Z,66.10
2019-03-23T00:17:43.602Z,66.90
2019-03-23T00:20:12.314Z,66.80
2019-03-23T00:22:40.937Z,67.50
2019-03-23T00:25:09.836Z,67.90
2019-03-23T00:27:38.396Z,67.90
2019-03-23T00:30:12.047Z,68.10
2019-03-23T00:32:40.630Z,68.10
2019-03-23T00:35:09.436Z,68.40
2019-03-23T00:37:38.810Z,68.60
2019-03-23T00:40:09.233Z,68.60
2019-03-23T00:42:37.735Z,69.20
2019-03-23T00:45:08.536Z,68.90
2019-03-23T00:47:37.196Z,69.30
2019-03-23T00:50:07.105Z,69.70
2019-03-23T00:52:35.653Z,69.90
2019-03-23T00:55:06.513Z,69.20
2019-03-23T00:57:35.068Z,69.00
2019-03-23T01:00:05.669Z,70.00
2019-03-23T01:02:34.261Z,70.50
2019-03-23T01:05:02.869Z,70.80
2019-03-23T01:07:31.434Z,70.30
2019-03-23T01:10:00.007Z,70.40
2019-03-23T01:12:28.556Z,70.90
2019-03-23T01:14:57.067Z,71.30
2019-03-23T01:17:25.557Z,71.20
2019-03-23T01:19:54.129Z,71.20
2019-03-23T01:22:22.657Z,71.30
2019-03-23T01:24:51.284Z,71.80
2019-03-23T01:27:19.800Z,71.70
2019-03-23T01:29:48.359Z,72.50
2019-03-23T01:32:16.999Z,72.10
2019-03-23T01:34:45.706Z,72.50
2019-03-23T01:37:14.185Z,72.10
2019-03-23T01:39:42.781Z,71.70
2019-03-23T01:42:11.416Z,71.40
2019-03-23T01:44:39.976Z,72.30
2019-03-23T01:47:08.556Z,72.20
2019-03-23T01:49:37.250Z,72.00
2019-03-23T01:52:05.978Z,72.10
2019-03-23T01:54:34.470Z,72.30
2019-03-23T01:57:02.962Z,72.30
2019-03-23T01:59:31.539Z,72.40
2019-03-23T02:02:00.035Z,72.70
2019-03-23T02:04:28.626Z,72.70
2019-03-23T02:06:57.184Z,72.70
2019-03-23T02:09:25.808Z,72.60
2019-03-23T02:11:54.323Z,73.70
2019-03-23T02:14:22.972Z,73.70
2019-03-23T02:16:51.560Z,73.80
2019-03-23T02:19:20.049Z,74.40
2019-03-23T02:21:48.602Z,74.70
2019-03-23T02:24:17.257Z,74.70
2019-03-23T02:26:45.823Z,75.00
2019-03-23T02:29:14.498Z,74.30
2019-03-23T02:31:43.085Z,74.50
2019-03-23T02:34:11.666Z,74.90
2019-03-23T02:36:40.239Z,75.00
2019-03-23T02:39:08.947Z,74.90
2019-03-23T02:41:37.545Z,74.80
2019-03-23T02:44:06.175Z,74.80
2019-03-23T02:46:34.867Z,75.10
2019-03-23T02:49:03.578Z,75.60
2019-03-23T02:51:32.253Z,75.10
2019-03-23T02:54:00.865Z,74.40
2019-03-23T02:56:29.504Z,74.70
2019-03-23T02:58:58.079Z,75.30
2019-03-23T03:01:26.665Z,75.80
2019-03-23T03:03:55.291Z,76.40
2019-03-23T03:06:23.874Z,75.30
2019-03-23T03:08:52.510Z,75.30
2019-03-23T03:11:21.078Z,75.60
2019-03-23T03:13:49.657Z,75.30
2019-03-23T03:16:18.263Z,75.50
2019-03-23T03:18:46.918Z,75.50
2019-03-23T03:21:15.545Z,76.20
2019-03-23T03:23:44.175Z,76.10
2019-03-23T03:26:12.813Z,76.00
2019-03-23T03:28:41.392Z,76.30
2019-03-23T03:31:10.049Z,76.00
2019-03-23T03:33:38.702Z,75.80
2019-03-23T03:36:07.268Z,75.90
2019-03-23T03:38:35.835Z,75.90
2019-03-23T03:41:04.549Z,76.50
2019-03-23T03:43:33.145Z,77.20
2019-03-23T03:46:01.769Z,77.60
2019-03-23T03:48:30.411Z,78.20
2019-03-23T03:50:58.979Z,77.80
2019-03-23T03:53:27.601Z,77.50
2019-03-23T03:55:56.288Z,77.10
2019-03-23T03:58:24.901Z,77.80
2019-03-23T04:00:53.464Z,79.10
2019-03-23T04:03:22.053Z,78.30
2019-03-23T04:05:50.626Z,78.10
2019-03-23T04:08:19.289Z,78.50
2019-03-23T04:10:47.865Z,78.50
2019-03-23T04:13:16.412Z,78.60
2019-03-23T04:15:45.059Z,78.50
2019-03-23T04:18:13.687Z,78.90
2019-03-23T04:20:42.264Z,79.10
2019-03-23T04:23:10.982Z,79.20
2019-03-23T04:25:39.558Z,79.10
2019-03-23T04:28:08.121Z,79.10
2019-03-23T04:30:36.683Z,79.30
2019-03-23T04:33:05.341Z,79.60
2019-03-23T04:35:33.911Z,79.60
2019-03-23T04:38:02.459Z,79.60
2019-03-23T04:40:31.121Z,79.10
2019-03-23T04:42:59.750Z,79.40
2019-03-23T04:45:28.347Z,79.40
2019-03-23T04:47:56.841Z,79.70
2019-03-23T04:50:25.545Z,79.70
2019-03-23T04:52:54.130Z,79.20
2019-03-23T04:55:22.763Z,78.90
2019-03-23T04:57:51.346Z,78.90
2019-03-23T05:00:20.661Z,79.20
2019-03-23T05:02:49.288Z,79.80
2019-03-23T05:05:17.928Z,79.90
2019-03-23T05:07:46.567Z,80.00
2019-03-23T05:10:15.494Z,79.80
2019-03-23T05:12:44.076Z,80.00
2019-03-23T05:15:13.065Z,80.00
2019-03-23T05:17:41.618Z,80.40
2019-03-23T05:20:11.372Z,80.40
2019-03-23T05:22:40.082Z,80.20
2019-03-23T05:25:11.718Z,80.20
2019-03-23T05:27:39.513Z,80.80
2019-03-23T05:30:08.733Z,81.40
2019-03-23T05:32:37.316Z,81.00
2019-03-23T05:35:06.856Z,81.50
2019-03-23T05:37:35.410Z,81.70
2019-03-23T05:40:06.289Z,81.40
2019-03-23T05:42:35.183Z,81.10
2019-03-23T05:45:04.929Z,80.70
2019-03-23T05:47:33.414Z,80.90
2019-03-23T05:50:01.983Z,81.50
2019-03-23T05:52:30.618Z,81.10
2019-03-23T05:54:59.104Z,81.30
2019-03-23T05:57:27.682Z,81.30
2019-03-23T05:59:56.164Z,80.90
2019-03-23T06:02:24.788Z,81.20
2019-03-23T06:04:53.509Z,81.40
2019-03-23T06:07:21.994Z,81.20
2019-03-23T06:09:50.655Z,81.10
2019-03-23T06:12:19.390Z,81.20
2019-03-23T06:14:47.877Z,81.00
2019-03-23T06:17:16.386Z,81.70
2019-03-23T06:19:44.868Z,81.80
2019-03-23T06:22:13.427Z,81.30
2019-03-23T06:24:41.981Z,83.60
2019-03-23T06:27:10.541Z,81.00
2019-03-23T06:29:39.176Z,80.30
2019-03-23T06:32:07.655Z,80.40
2019-03-23T06:34:36.182Z,80.40
2019-03-23T06:37:05.072Z,80.50
2019-03-23T06:39:33.562Z,80.30
2019-03-23T06:42:02.321Z,80.30
2019-03-23T06:44:30.963Z,80.10
2019-03-23T06:46:59.727Z,79.90
2019-03-23T06:49:28.293Z,79.60
2019-03-23T06:51:56.977Z,79.40
2019-03-23T06:54:25.624Z,79.30
2019-03-23T06:56:54.105Z,78.80
2019-03-23T06:59:22.694Z,78.30
2019-03-23T07:01:51.395Z,77.60
2019-03-23T07:04:20.021Z,77.10
2019-03-23T07:06:48.598Z,76.20
2019-03-23T07:09:17.299Z,75.50
2019-03-23T07:11:47.259Z,75.10
2019-03-23T07:14:15.880Z,74.40
2019-03-23T07:16:44.693Z,73.90
2019-03-23T07:19:13.409Z,73.60
2019-03-23T07:21:41.912Z,73.80
2019-03-23T07:24:10.573Z,73.10
2019-03-23T07:26:40.465Z,72.50
2019-03-23T07:29:10.282Z,70.90
2019-03-23T07:31:38.862Z,69.30
2019-03-23T07:34:07.418Z,67.50
2019-03-23T07:36:36.281Z,65.80
2019-03-23T07:39:06.694Z,64.20
2019-03-23T07:41:35.419Z,62.20
2019-03-23T07:44:04.141Z,61.10
2019-03-23T07:46:32.714Z,60.40
2019-03-23T07:49:02.166Z,58.70
2019-03-23T07:51:30.738Z,58.40
2019-03-23T07:53:59.458Z,57.60
2019-03-23T07:56:28.126Z,56.90
2019-03-23T07:58:58.400Z,55.60
2019-03-23T08:01:27.079Z,55.80
2019-03-23T08:03:56.472Z,54.60
2019-03-23T08:06:26.030Z,53.10
2019-03-23T08:08:54.540Z,53.10
2019-03-23T08:11:23.844Z,52.60
2019-03-23T08:13:52.687Z,52.70
2019-03-23T08:16:23.375Z,51.80
2019-03-23T08:18:51.716Z,51.80
2019-03-23T08:21:20.999Z,51.00
2019-03-23T08:23:49.567Z,50.70
2019-03-23T08:26:18.238Z,51.10
2019-03-23T08:28:46.744Z,50.40
2019-03-23T08:31:15.281Z,49.30
2019-03-23T08:33:43.831Z,48.80
2019-03-23T08:36:12.392Z,48.20
2019-03-23T08:38:40.900Z,48.60
2019-03-23T08:41:09.410Z,47.50
2019-03-23T08:43:38.124Z,47.50
2019-03-23T08:46:06.679Z,46.40
2019-03-23T08:48:35.479Z,46.10
2019-03-23T08:51:04.193Z,45.20
2019-03-23T08:53:32.754Z,44.80
2019-03-23T08:56:01.755Z,43.70
2019-03-23T08:58:29.408Z,44.20
2019-03-23T09:00:58.944Z,43.30
2019-03-23T09:03:27.516Z,43.60
2019-03-23T09:05:56.075Z,43.10
2019-03-23T09:08:24.741Z,42.00
2019-03-23T09:10:53.318Z,41.10
2019-03-23T09:13:21.888Z,40.70
2019-03-23T09:15:50.478Z,40.40
2019-03-23T09:18:19.039Z,39.80
2019-03-23T09:20:47.638Z,39.50
2019-03-23T09:23:16.212Z,38.70
2019-03-23T09:25:45.787Z,37.70
2019-03-23T09:28:15.965Z,37.90
2019-03-23T09:30:44.536Z,37.10
2019-03-23T09:33:13.065Z,37.30
2019-03-23T09:35:41.640Z,36.60
2019-03-23T09:38:10.332Z,35.40
2019-03-23T09:40:38.841Z,35.30
2019-03-23T09:43:07.467Z,35.20
2019-03-23T09:45:36.141Z,34.70
2019-03-23T09:48:04.774Z,34.20
2019-03-23T09:50:33.333Z,33.20
2019-03-23T09:53:01.842Z,33.70
2019-03-23T09:55:30.394Z,32.60
2019-03-23T09:57:58.915Z,33.10
2019-03-23T10:00:27.491Z,33.00
2019-03-23T10:02:56.290Z,33.00
2019-03-23T10:05:24.872Z,32.30
2019-03-23T10:07:53.376Z,31.70
2019-03-23T10:10:22.551Z,32.30
2019-03-23T10:12:51.127Z,31.00
2019-03-23T10:15:19.693Z,31.20
2019-03-23T10:17:48.343Z,30.50
2019-03-23T10:20:16.832Z,30.50
2019-03-23T10:22:46.695Z,30.30
2019-03-23T10:25:15.330Z,30.50
2019-03-23T10:27:43.816Z,30.00
2019-03-23T10:30:12.552Z,29.80
2019-03-23T10:32:41.109Z,30.60
2019-03-23T10:35:10.809Z,29.90
2019-03-23T10:37:39.458Z,29.10
2019-03-23T10:40:09.697Z,29.40
2019-03-23T10:42:38.314Z,28.90
2019-03-23T10:45:07.785Z,29.10
2019-03-23T10:47:36.558Z,28.60
2019-03-23T10:50:05.940Z,29.00
2019-03-23T10:52:34.596Z,28.10
2019-03-23T10:55:03.938Z,28.70
2019-03-23T10:57:32.431Z,28.70
2019-03-23T11:00:01.011Z,28.70
2019-03-23T11:02:29.649Z,28.50
2019-03-23T11:04:58.285Z,28.40
2019-03-23T11:07:26.917Z,28.40
2019-03-23T11:09:56.213Z,28.70
2019-03-23T11:12:24.801Z,28.60
2019-03-23T11:14:53.313Z,28.70
2019-03-23T11:17:21.946Z,27.90
2019-03-23T11:19:50.595Z,28.40
2019-03-23T11:22:19.124Z,28.70
2019-03-23T11:24:47.717Z,28.50
2019-03-23T11:27:16.219Z,28.50
2019-03-23T11:29:44.815Z,28.70
2019-03-23T11:32:14.047Z,29.30
2019-03-23T11:34:42.742Z,28.90
2019-03-23T11:37:11.421Z,28.80
2019-03-23T11:39:40.092Z,29.20
2019-03-23T11:42:08.677Z,29.10
2019-03-23T11:44:37.326Z,28.40
2019-03-23T11:47:07.431Z,28.20
2019-03-23T11:49:35.960Z,28.30
2019-03-23T11:52:04.886Z,28.90
2019-03-23T11:54:33.595Z,29.00
2019-03-23T11:57:03.000Z,29.30
2019-03-23T11:59:31.559Z,29.40
2019-03-23T12:02:00.159Z,30.50
2019-03-23T12:04:28.725Z,29.00
2019-03-23T12:06:57.285Z,29.10
2019-03-23T12:09:25.933Z,29.40
2019-03-23T12:11:54.576Z,29.30
2019-03-23T12:14:23.164Z,29.50
2019-03-23T12:16:51.734Z,29.90
2019-03-23T12:19:20.291Z,30.00
2019-03-23T12:21:50.882Z,29.80
2019-03-23T12:24:19.529Z,29.90
2019-03-23T12:26:48.182Z,30.10
2019-03-23T12:29:16.689Z,30.00
2019-03-23T12:31:45.190Z,29.30
2019-03-23T12:34:13.838Z,29.80
2019-03-23T12:36:42.396Z,29.40
2019-03-23T12:39:11.068Z,29.70
2019-03-23T12:41:39.633Z,29.00
2019-03-23T12:44:08.199Z,29.00
2019-03-23T12:46:36.708Z,28.40
2019-03-23T12:49:05.206Z,28.50
2019-03-23T12:51:33.719Z,28.70
2019-03-23T12:54:02.203Z,27.90
2019-03-23T12:56:30.780Z,27.70
2019-03-23T12:58:59.684Z,27.30
2019-03-23T13:01:28.468Z,27.30
2019-03-23T13:03:57.076Z,26.90
2019-03-23T13:06:25.700Z,27.20
2019-03-23T13:08:54.264Z,27.20
2019-03-23T13:11:24.538Z,26.20
2019-03-23T13:13:53.062Z,26.10
2019-03-23T13:16:21.610Z,26.00
2019-03-23T13:18:50.172Z,26.40
2019-03-23T13:21:18.745Z,26.30
2019-03-23T13:23:47.392Z,26.30
2019-03-23T13:26:15.949Z,25.90
2019-03-23T13:28:44.568Z,26.00
2019-03-23T13:31:13.222Z,26.60
2019-03-23T13:33:41.913Z,26.30
2019-03-23T13:36:10.636Z,25.90
2019-03-23T13:38:39.265Z,26.10
2019-03-23T13:41:07.849Z,26.00
2019-03-23T13:43:36.451Z,25.70
2019-03-23T13:46:05.351Z,26.30
2019-03-23T13:48:34.262Z,26.10
2019-03-23T13:51:02.888Z,25.20
2019-03-23T13:53:31.405Z,25.40
2019-03-23T13:56:00.071Z,24.70
2019-03-23T13:58:28.760Z,25.40
2019-03-23T14:00:57.279Z,25.60
2019-03-23T14:03:27.307Z,26.20
2019-03-23T14:05:55.849Z,25.90
2019-03-23T14:08:24.404Z,26.40
2019-03-23T14:10:53.167Z,26.10
2019-03-23T14:13:21.771Z,25.70
2019-03-23T14:15:50.258Z,25.60
2019-03-23T14:18:18.861Z,26.00
2019-03-23T14:20:47.559Z,25.90
2019-03-23T14:23:16.201Z,25.40
2019-03-23T14:25:44.784Z,25.00
2019-03-23T14:28:13.350Z,24.60
2019-03-23T14:30:41.959Z,25.00
2019-03-23T14:33:10.776Z,25.20
2019-03-23T14:35:39.361Z,24.30
2019-03-23T14:38:07.941Z,24.80
2019-03-23T14:40:36.442Z,25.40
2019-03-23T14:43:05.171Z,25.30
2019-03-23T14:45:33.828Z,25.00
2019-03-23T14:48:02.316Z,24.40
2019-03-23T14:50:30.902Z,24.40
2019-03-23T14:52:59.458Z,25.00
2019-03-23T14:55:28.125Z,25.20
2019-03-23T14:57:56.718Z,25.50
2019-03-23T15:00:32.903Z,25.20
2019-03-23T15:03:01.580Z,25.50
2019-03-23T15:05:30.276Z,25.20
2019-03-23T15:07:58.864Z,25.20
2019-03-23T15:10:27.583Z,25.20
2019-03-23T15:12:56.203Z,25.20
2019-03-23T15:15:24.701Z,25.70
2019-03-23T15:17:53.511Z,25.60
2019-03-23T15:20:22.118Z,25.70
2019-03-23T15:22:50.641Z,25.50
2019-03-23T15:25:19.218Z,25.60
2019-03-23T15:27:47.866Z,26.00
2019-03-23T15:30:16.525Z,25.50
2019-03-23T15:32:45.211Z,25.90
2019-03-23T15:35:13.916Z,26.20
2019-03-23T15:37:42.528Z,26.70
2019-03-23T15:40:11.672Z,26.40
2019-03-23T15:42:40.231Z,26.50
2019-03-23T15:45:10.243Z,26.70
2019-03-23T15:47:38.902Z,26.70
2019-03-23T15:50:08.613Z,26.80
2019-03-23T15:52:37.214Z,27.20
2019-03-23T15:55:06.426Z,27.40
2019-03-23T15:57:35.738Z,28.00
2019-03-23T16:00:07.552Z,27.50
2019-03-23T16:02:36.112Z,28.00
2019-03-23T16:05:06.899Z,28.90
2019-03-23T16:07:35.536Z,29.40
2019-03-23T16:10:07.052Z,29.10
2019-03-23T16:12:37.754Z,29.40
2019-03-23T16:15:09.355Z,28.90
2019-03-23T16:17:39.278Z,29.40
2019-03-23T16:20:11.373Z,30.00
2019-03-23T16:22:40.093Z,30.60
2019-03-23T16:25:09.743Z,31.00
2019-03-23T16:27:38.415Z,31.30
2019-03-23T16:30:09.917Z,31.40
2019-03-23T16:32:38.599Z,32.90
2019-03-23T16:35:08.563Z,33.80
2019-03-23T16:37:37.266Z,34.40
2019-03-23T16:40:12.249Z,34.60
2019-03-23T16:42:45.184Z,35.30
2019-03-23T16:45:14.393Z,36.60
2019-03-23T16:47:43.145Z,38.00
2019-03-23T16:50:13.241Z,39.00
2019-03-23T16:52:41.962Z,40.00
2019-03-23T16:55:10.925Z,40.70
2019-03-23T16:57:39.594Z,41.60
2019-03-23T17:00:10.738Z,42.00
2019-03-23T17:02:39.388Z,43.20
2019-03-23T17:05:08.116Z,43.80
2019-03-23T17:07:37.435Z,43.80
2019-03-23T17:10:07.379Z,44.70
2019-03-23T17:12:36.232Z,45.00
2019-03-23T17:15:08.841Z,46.00
2019-03-23T17:17:37.490Z,46.50
2019-03-23T17:20:06.587Z,47.20
2019-03-23T17:22:35.786Z,48.10
2019-03-23T17:25:06.231Z,48.90
2019-03-23T17:27:34.713Z,49.20
2019-03-23T17:30:05.219Z,49.40
2019-03-23T17:32:34.085Z,49.70
2019-03-23T17:35:03.000Z,49.90
2019-03-23T17:37:31.650Z,49.70
2019-03-23T17:40:00.361Z,50.60
2019-03-23T17:42:29.948Z,51.20
2019-03-23T17:44:58.609Z,51.90
2019-03-23T17:47:27.245Z,52.40
2019-03-23T17:49:57.284Z,53.00
2019-03-23T17:52:26.001Z,52.20
2019-03-23T17:54:54.728Z,53.30
2019-03-23T17:57:23.356Z,53.80
2019-03-23T17:59:51.999Z,55.10
2019-03-23T18:02:20.623Z,54.40
2019-03-23T18:04:49.226Z,55.20
2019-03-23T18:07:17.965Z,55.00
2019-03-23T18:09:46.624Z,55.90
2019-03-23T18:12:15.192Z,56.10
2019-03-23T18:14:43.719Z,56.20
2019-03-23T18:17:12.377Z,56.60
2019-03-23T18:19:40.941Z,57.00
2019-03-23T18:22:09.538Z,57.30
2019-03-23T18:24:38.233Z,57.80
2019-03-23T18:27:06.802Z,57.70
2019-03-23T18:29:35.391Z,57.90
2019-03-23T18:32:04.021Z,57.80
2019-03-23T18:34:32.593Z,58.40
2019-03-23T18:37:01.093Z,58.90
2019-03-23T18:39:29.769Z,59.20
2019-03-23T18:41:58.385Z,59.50
2019-03-23T18:44:27.085Z,59.60
2019-03-23T18:46:55.751Z,59.70
2019-03-23T18:49:24.466Z,59.30
2019-03-23T18:51:53.238Z,59.80
2019-03-23T18:54:21.882Z,60.00
2019-03-23T18:56:50.439Z,61.10
2019-03-23T18:59:18.951Z,61.40
2019-03-23T19:01:47.586Z,61.20
2019-03-23T19:04:16.357Z,61.80
2019-03-23T19:06:44.959Z,61.80
2019-03-23T19:09:13.620Z,61.70
2019-03-23T19:11:42.233Z,61.70
2019-03-23T19:14:12.289Z,62.20
2019-03-23T19:16:41.396Z,62.10
2019-03-23T19:19:10.011Z,62.70
2019-03-23T19:21:38.750Z,62.40
2019-03-23T19:24:07.382Z,62.30
2019-03-23T19:26:39.108Z,62.20
2019-03-23T19:29:07.786Z,62.50
2019-03-23T19:31:36.327Z,63.30
2019-03-23T19:34:04.999Z,63.60
2019-03-23T19:36:33.625Z,63.80
2019-03-23T19:39:02.425Z,63.70
2019-03-23T19:41:31.016Z,63.60
2019-03-23T19:43:59.504Z,64.20
2019-03-23T19:46:28.125Z,63.80
2019-03-23T19:48:58.239Z,63.70
2019-03-23T19:51:26.930Z,63.70
2019-03-23T19:53:55.440Z,64.10
2019-03-23T19:56:23.950Z,63.80
2019-03-23T19:58:52.549Z,63.90
2019-03-23T20:01:21.117Z,64.10
2019-03-23T20:03:49.751Z,64.20
2019-03-23T20:06:18.382Z,65.10
2019-03-23T20:08:46.934Z,65.30
2019-03-23T20:11:15.543Z,66.00
2019-03-23T20:13:44.172Z,65.50
2019-03-23T20:16:12.798Z,65.50
2019-03-23T20:18:41.399Z,66.00
2019-03-23T20:21:10.055Z,65.80
2019-03-23T20:23:38.660Z,65.60
2019-03-23T20:26:07.369Z,66.10
2019-03-23T20:28:35.942Z,66.10
2019-03-23T20:31:07.571Z,65.50
2019-03-23T20:33:35.443Z,65.50
2019-03-23T20:36:04.254Z,66.00
2019-03-23T20:38:32.896Z,66.00
2019-03-23T20:41:01.414Z,65.90
2019-03-23T20:43:30.014Z,66.00
2019-03-23T20:45:58.717Z,66.20
2019-03-23T20:48:27.249Z,66.80
2019-03-23T20:50:55.875Z,66.10
2019-03-23T20:53:24.667Z,67.10
2019-03-23T20:55:53.276Z,66.40
2019-03-23T20:58:22.033Z,67.40
2019-03-23T21:00:50.757Z,67.50
2019-03-23T21:03:19.253Z,67.30
2019-03-23T21:05:47.837Z,69.10
2019-03-23T21:08:16.496Z,67.40
2019-03-23T21:10:45.130Z,68.30
2019-03-23T21:13:13.842Z,67.80
2019-03-23T21:15:42.462Z,68.10
2019-03-23T21:18:10.990Z,68.40
2019-03-23T21:20:39.616Z,68.60
2019-03-23T21:23:08.280Z,69.50
2019-03-23T21:25:36.855Z,69.20
2019-03-23T21:28:05.434Z,69.40
2019-03-23T21:30:34.104Z,68.90
2019-03-23T21:33:02.741Z,68.60
2019-03-23T21:35:31.330Z,69.10
2019-03-23T21:37:59.980Z,69.50
2019-03-23T21:40:28.543Z,69.70
2019-03-23T21:42:57.174Z,69.10
2019-03-23T21:45:25.911Z,70.00
2019-03-23T21:47:54.479Z,69.70
2019-03-23T21:50:23.032Z,70.20
2019-03-23T21:52:51.560Z,69.70
2019-03-23T21:55:20.263Z,69.70
2019-03-23T21:57:48.895Z,70.10
2019-03-23T22:00:31.495Z,70.10
2019-03-23T22:03:00.707Z,70.00
2019-03-23T22:05:29.344Z,70.40
2019-03-23T22:07:58.065Z,70.40
2019-03-23T22:10:26.695Z,71.70
2019-03-23T22:12:55.324Z,71.10
2019-03-23T22:15:24.069Z,71.70
2019-03-23T22:17:53.501Z,71.30
2019-03-23T22:20:24.986Z,71.00
2019-03-23T22:22:53.655Z,71.40
2019-03-23T22:25:22.291Z,71.20
2019-03-23T22:27:50.791Z,71.20
2019-03-23T22:30:19.744Z,71.60
2019-03-23T22:32:48.234Z,72.00
2019-03-23T22:35:16.894Z,72.00
2019-03-23T22:37:45.555Z,71.70
2019-03-23T22:40:14.676Z,71.90
2019-03-23T22:42:43.305Z,72.10
2019-03-23T22:45:12.731Z,72.80
2019-03-23T22:47:41.368Z,72.20
2019-03-23T22:50:10.413Z,72.10
2019-03-23T22:52:39.163Z,72.90
2019-03-23T22:55:08.253Z,72.90
2019-03-23T22:57:36.884Z,72.60
2019-03-23T23:00:11.946Z,73.00
2019-03-23T23:02:40.665Z,72.50
2019-03-23T23:05:09.851Z,72.40
2019-03-23T23:07:38.529Z,73.20
2019-03-23T23:10:07.738Z,73.00
2019-03-23T23:12:36.370Z,72.80
2019-03-23T23:15:07.951Z,72.40
2019-03-23T23:17:36.609Z,72.60
2019-03-23T23:20:07.644Z,73.20
2019-03-23T23:22:36.284Z,73.80
2019-03-23T23:25:08.438Z,73.90
2019-03-23T23:27:37.297Z,74.30
2019-03-23T23:30:09.068Z,74.20
2019-03-23T23:32:37.776Z,73.90
2019-03-23T23:35:08.499Z,74.90
2019-03-23T23:37:37.136Z,75.00
2019-03-23T23:40:06.888Z,75.00
2019-03-23T23:42:35.552Z,75.40
2019-03-23T23:45:15.350Z,75.10
2019-03-23T23:47:37.686Z,75.40
2019-03-23T23:50:07.391Z,74.90
2019-03-23T23:52:36.053Z,75.30
2019-03-23T23:55:06.203Z,75.50
2019-03-23T23:57:34.888Z,76.10
